createdAt,value
2018-09-13T00:00:02.184Z,1017.88
2018-09-13T00:01:02.171Z,1017.87
2018-09-13T00:02:02.207Z,1017.89
2018-09-13T00:03:02.151Z,1017.89
2018-09-13T00:04:02.139Z,1017.90
2018-09-13T00:05:02.166Z,1017.95
2018-09-13T00:06:02.117Z,1017.97
2018-09-13T00:07:02.135Z,1017.96
2018-09-13T00:08:02.118Z,1017.96
2018-09-13T00:09:02.082Z,1018.01
2018-09-13T00:10:02.101Z,1018.01
2018-09-13T00:11:02.058Z,1018.03
2018-09-13T00:12:02.053Z,1018.04
2018-09-13T00:13:02.043Z,1017.97
2018-09-13T00:14:02.057Z,1017.96
2018-09-13T00:15:02.015Z,1017.94
2018-09-13T00:16:02.006Z,1017.96
2018-09-13T00:17:01.994Z,1018.01
2018-09-13T00:18:02.090Z,1017.99
2018-09-13T00:19:01.975Z,1017.95
2018-09-13T00:20:01.960Z,1017.99
2018-09-13T00:21:02.038Z,1018.06
2018-09-13T00:22:01.933Z,1017.98
2018-09-13T00:23:01.925Z,1017.99
2018-09-13T00:24:01.925Z,1018.03
2018-09-13T00:25:01.937Z,1018.03
2018-09-13T00:26:01.933Z,1018.03
2018-09-13T00:27:01.877Z,1018.02
2018-09-13T00:28:01.867Z,1018.04
2018-09-13T00:29:01.857Z,1018.09
2018-09-13T00:30:01.873Z,1018.02
2018-09-13T00:31:01.838Z,1018.04
2018-09-13T00:32:01.831Z,1018.08
2018-09-13T00:33:01.815Z,1017.99
2018-09-13T00:34:01.804Z,1017.99
2018-09-13T00:35:01.820Z,1018.09
2018-09-13T00:36:01.777Z,1018.02
2018-09-13T00:37:01.797Z,1017.96
2018-09-13T00:38:01.757Z,1018.01
2018-09-13T00:39:01.749Z,1017.98
2018-09-13T00:40:01.764Z,1017.98
2018-09-13T00:41:01.725Z,1018.05
2018-09-13T00:42:01.709Z,1017.93
2018-09-13T00:43:01.699Z,1017.94
2018-09-13T00:44:01.732Z,1017.89
2018-09-13T00:45:01.692Z,1017.91
2018-09-13T00:46:01.685Z,1017.92
2018-09-13T00:47:01.659Z,1017.92
2018-09-13T00:48:01.643Z,1017.91
2018-09-13T00:49:01.661Z,1017.93
2018-09-13T00:50:01.665Z,1017.94
2018-09-13T00:51:01.608Z,1017.94
2018-09-13T00:52:01.597Z,1017.95
2018-09-13T00:53:01.589Z,1017.98
2018-09-13T00:54:01.575Z,1017.96
2018-09-13T00:55:01.697Z,1017.97
2018-09-13T00:56:01.554Z,1017.96
2018-09-13T00:57:01.564Z,1017.97
2018-09-13T00:58:01.530Z,1017.96
2018-09-13T00:59:01.560Z,1017.95
2018-09-13T01:00:01.535Z,1018.00
2018-09-13T01:01:01.538Z,1018.01
2018-09-13T01:02:01.522Z,1018.10
2018-09-13T01:03:01.473Z,1018.09
2018-09-13T01:04:01.466Z,1018.10
2018-09-13T01:05:01.452Z,1018.12
2018-09-13T01:06:01.448Z,1018.13
2018-09-13T01:07:01.460Z,1018.08
2018-09-13T01:08:01.412Z,1018.09
2018-09-13T01:09:01.432Z,1018.15
2018-09-13T01:10:01.400Z,1018.08
2018-09-13T01:11:01.399Z,1018.07
2018-09-13T01:12:01.408Z,1018.03
2018-09-13T01:13:01.408Z,1017.98
2018-09-13T01:14:01.351Z,1017.94
2018-09-13T01:15:01.346Z,1017.90
2018-09-13T01:16:01.345Z,1017.90
2018-09-13T01:17:01.321Z,1017.98
2018-09-13T01:18:01.348Z,1017.93
2018-09-13T01:19:01.298Z,1017.94
2018-09-13T01:20:01.285Z,1017.87
2018-09-13T01:21:01.283Z,1017.84
2018-09-13T01:22:01.293Z,1017.89
2018-09-13T01:23:01.248Z,1017.92
2018-09-13T01:24:01.240Z,1017.90
2018-09-13T01:25:01.254Z,1017.90
2018-09-13T01:26:01.245Z,1017.91
2018-09-13T01:27:01.204Z,1017.94
2018-09-13T01:28:01.199Z,1017.89
2018-09-13T01:29:01.217Z,1017.92
2018-09-13T01:30:01.207Z,1017.84
2018-09-13T01:31:01.165Z,1017.83
2018-09-13T01:32:01.150Z,1017.81
2018-09-13T01:33:01.139Z,1017.79
2018-09-13T01:34:01.129Z,1017.77
2018-09-13T01:35:01.148Z,1017.77
2018-09-13T01:36:01.105Z,1017.79
2018-09-13T01:37:01.094Z,1017.74
2018-09-13T01:38:01.185Z,1017.69
2018-09-13T01:39:01.075Z,1017.77
2018-09-13T01:40:01.063Z,1017.67
2018-09-13T01:41:01.116Z,1017.66
2018-09-13T01:42:01.086Z,1017.63
2018-09-13T01:43:01.026Z,1017.62
2018-09-13T01:44:01.017Z,1017.55
2018-09-13T01:45:01.003Z,1017.58
2018-09-13T01:46:00.993Z,1017.53
2018-09-13T01:47:01.009Z,1017.50
2018-09-13T01:48:00.969Z,1017.46
2018-09-13T01:49:00.962Z,1017.40
2018-09-13T01:50:00.946Z,1017.41
2018-09-13T01:51:00.934Z,1017.36
2018-09-13T01:52:00.954Z,1017.36
2018-09-13T01:53:00.913Z,1017.31
2018-09-13T01:54:00.901Z,1017.25
2018-09-13T01:55:00.891Z,1017.34
2018-09-13T01:56:00.885Z,1017.36
2018-09-13T01:57:00.956Z,1017.38
2018-09-13T01:58:00.887Z,1017.40
2018-09-13T01:59:00.874Z,1017.39
2018-09-13T02:00:00.835Z,1017.43
2018-09-13T02:01:00.827Z,1017.45
2018-09-13T02:02:00.812Z,1017.41
2018-09-13T02:03:00.840Z,1017.44
2018-09-13T02:04:00.789Z,1017.45
2018-09-13T02:05:00.783Z,1017.41
2018-09-13T02:06:00.774Z,1017.46
2018-09-13T02:07:00.787Z,1017.43
2018-09-13T02:08:00.751Z,1017.48
2018-09-13T02:09:00.765Z,1017.41
2018-09-13T02:10:00.725Z,1017.39
2018-09-13T02:11:00.713Z,1017.39
2018-09-13T02:12:00.730Z,1017.32
2018-09-13T02:13:00.765Z,1017.34
2018-09-13T02:14:00.679Z,1017.29
2018-09-13T02:15:00.695Z,1017.25
2018-09-13T02:16:00.663Z,1017.31
2018-09-13T02:17:00.680Z,1017.25
2018-09-13T02:18:00.633Z,1017.22
2018-09-13T02:19:00.621Z,1017.24
2018-09-13T02:20:00.614Z,1017.24
2018-09-13T02:21:00.630Z,1017.23
2018-09-13T02:22:00.621Z,1017.23
2018-09-13T02:23:00.607Z,1017.27
2018-09-13T02:24:00.569Z,1017.24
2018-09-13T02:25:00.589Z,1017.27
2018-09-13T02:26:00.546Z,1017.26
2018-09-13T02:27:00.536Z,1017.24
2018-09-13T02:28:00.532Z,1017.27
2018-09-13T02:29:00.519Z,1017.26
2018-09-13T02:30:00.537Z,1017.30
2018-09-13T02:31:00.491Z,1017.37
2018-09-13T02:32:00.476Z,1017.33
2018-09-13T02:33:00.471Z,1017.33
2018-09-13T02:34:00.463Z,1017.29
2018-09-13T02:35:05.800Z,1017.30
2018-09-13T02:36:00.480Z,1017.33
2018-09-13T02:37:00.475Z,1017.37
2018-09-13T02:38:00.416Z,1017.42
2018-09-13T02:39:00.427Z,1017.38
2018-09-13T02:40:00.418Z,1017.42
2018-09-13T02:41:00.389Z,1017.40
2018-09-13T02:42:00.375Z,1017.47
2018-09-13T02:43:00.359Z,1017.41
2018-09-13T02:44:00.373Z,1017.37
2018-09-13T02:45:00.413Z,1017.36
2018-09-13T02:46:00.324Z,1017.35
2018-09-13T02:47:00.316Z,1017.33
2018-09-13T02:48:00.307Z,1017.30
2018-09-13T02:49:00.357Z,1017.31
2018-09-13T02:50:00.303Z,1017.21
2018-09-13T02:51:00.274Z,1017.20
2018-09-13T02:52:00.261Z,1017.21
2018-09-13T02:53:00.306Z,1017.17
2018-09-13T02:54:00.245Z,1017.19
2018-09-13T02:55:00.275Z,1017.15
2018-09-13T02:56:00.213Z,1017.16
2018-09-13T02:57:00.213Z,1017.15
2018-09-13T02:58:00.192Z,1017.16
2018-09-13T02:59:00.184Z,1017.14
2018-09-13T03:00:00.173Z,1017.12
2018-09-13T03:01:00.198Z,1017.16
2018-09-13T03:02:00.172Z,1017.13
2018-09-13T03:03:00.139Z,1017.13
2018-09-13T03:04:00.126Z,1017.16
2018-09-13T03:05:00.122Z,1017.14
2018-09-13T03:06:00.106Z,1017.13
2018-09-13T03:07:00.124Z,1017.18
2018-09-13T03:08:00.087Z,1017.22
2018-09-13T03:09:00.081Z,1017.17
2018-09-13T03:10:00.062Z,1017.19
2018-09-13T03:11:00.058Z,1017.22
2018-09-13T03:12:00.072Z,1017.21
2018-09-13T03:13:00.032Z,1017.16
2018-09-13T03:14:00.020Z,1017.15
2018-09-13T03:15:00.009Z,1017.20
2018-09-13T03:15:59.992Z,1017.27
2018-09-13T03:17:00.080Z,1017.19
2018-09-13T03:18:00.005Z,1017.24
2018-09-13T03:18:59.962Z,1017.24
2018-09-13T03:19:59.955Z,1017.25
2018-09-13T03:20:59.937Z,1017.25
2018-09-13T03:21:59.931Z,1017.22
2018-09-13T03:22:59.940Z,1017.23
2018-09-13T03:23:59.911Z,1017.29
2018-09-13T03:24:59.898Z,1017.32
2018-09-13T03:25:59.890Z,1017.34
2018-09-13T03:26:59.873Z,1017.29
2018-09-13T03:27:59.887Z,1017.34
2018-09-13T03:28:59.850Z,1017.32
2018-09-13T03:29:59.846Z,1017.30
2018-09-13T03:30:59.837Z,1017.31
2018-09-13T03:31:59.832Z,1017.30
2018-09-13T03:32:59.896Z,1017.32
2018-09-13T03:33:59.818Z,1017.35
2018-09-13T03:34:59.791Z,1017.34
2018-09-13T03:35:59.777Z,1017.33
2018-09-13T03:36:59.764Z,1017.33
2018-09-13T03:37:59.775Z,1017.32
2018-09-13T03:38:59.763Z,1017.28
2018-09-13T03:39:59.729Z,1017.27
2018-09-13T03:40:59.718Z,1017.29
2018-09-13T03:41:59.773Z,1017.25
2018-09-13T03:42:59.705Z,1017.25
2018-09-13T03:43:59.685Z,1017.28
2018-09-13T03:44:59.703Z,1017.25
2018-09-13T03:45:59.670Z,1017.29
2018-09-13T03:46:59.654Z,1017.25
2018-09-13T03:47:59.641Z,1017.25
2018-09-13T03:48:59.760Z,1017.30
2018-09-13T03:49:59.649Z,1017.28
2018-09-13T03:50:59.608Z,1017.28
2018-09-13T03:51:59.600Z,1017.27
2018-09-13T03:52:59.590Z,1017.27
2018-09-13T03:53:59.599Z,1017.28
2018-09-13T03:54:59.562Z,1017.29
2018-09-13T03:55:59.557Z,1017.26
2018-09-13T03:56:59.541Z,1017.22
2018-09-13T03:57:59.534Z,1017.25
2018-09-13T03:58:59.523Z,1017.22
2018-09-13T03:59:59.537Z,1017.22
2018-09-13T04:00:59.526Z,1017.19
2018-09-13T04:01:59.486Z,1017.21
2018-09-13T04:02:59.475Z,1017.18
2018-09-13T04:03:59.465Z,1017.17
2018-09-13T04:04:59.456Z,1017.13
2018-09-13T04:05:59.467Z,1017.14
2018-09-13T04:06:59.432Z,1017.14
2018-09-13T04:07:59.456Z,1017.20
2018-09-13T04:08:59.413Z,1017.13
2018-09-13T04:09:59.423Z,1017.19
2018-09-13T04:10:59.416Z,1017.18
2018-09-13T04:11:59.377Z,1017.18
2018-09-13T04:12:59.400Z,1017.22
2018-09-13T04:13:59.355Z,1017.19
2018-09-13T04:14:59.345Z,1017.18
2018-09-13T04:15:59.368Z,1017.18
2018-09-13T04:16:59.321Z,1017.16
2018-09-13T04:17:59.349Z,1017.17
2018-09-13T04:18:59.381Z,1017.25
2018-09-13T04:19:59.288Z,1017.18
2018-09-13T04:20:59.307Z,1017.20
2018-09-13T04:21:59.263Z,1017.20
2018-09-13T04:22:59.279Z,1017.18
2018-09-13T04:23:59.259Z,1017.20
2018-09-13T04:24:59.231Z,1017.18
2018-09-13T04:25:59.227Z,1017.25
2018-09-13T04:26:59.232Z,1017.20
2018-09-13T04:27:59.203Z,1017.16
2018-09-13T04:28:59.192Z,1017.14
2018-09-13T04:29:59.178Z,1017.16
2018-09-13T04:30:59.190Z,1017.14
2018-09-13T04:31:59.156Z,1017.14
2018-09-13T04:32:59.173Z,1017.09
2018-09-13T04:33:59.133Z,1017.10
2018-09-13T04:34:59.121Z,1017.16
2018-09-13T04:35:59.170Z,1017.16
2018-09-13T04:36:59.123Z,1017.18
2018-09-13T04:37:59.089Z,1017.19
2018-09-13T04:38:59.075Z,1017.18
2018-09-13T04:39:59.071Z,1017.18
2018-09-13T04:40:59.079Z,1017.20
2018-09-13T04:41:59.045Z,1017.22
2018-09-13T04:43:06.100Z,1017.21
2018-09-13T04:43:59.020Z,1017.22
2018-09-13T04:44:59.052Z,1017.20
2018-09-13T04:45:59.004Z,1017.23
2018-09-13T04:46:59.030Z,1017.23
2018-09-13T04:47:58.977Z,1017.19
2018-09-13T04:48:59.014Z,1017.21
2018-09-13T04:49:58.982Z,1017.20
2018-09-13T04:50:58.945Z,1017.21
2018-09-13T04:51:58.939Z,1017.28
2018-09-13T04:52:58.963Z,1017.28
2018-09-13T04:53:58.910Z,1017.22
2018-09-13T04:54:58.905Z,1017.27
2018-09-13T04:55:58.891Z,1017.25
2018-09-13T04:56:58.876Z,1017.27
2018-09-13T04:57:58.886Z,1017.32
2018-09-13T04:58:58.854Z,1017.36
2018-09-13T04:59:58.843Z,1017.22
2018-09-13T05:00:58.874Z,1017.30
2018-09-13T05:01:58.823Z,1017.29
2018-09-13T05:02:58.812Z,1017.29
2018-09-13T05:03:58.799Z,1017.30
2018-09-13T05:04:58.790Z,1017.30
2018-09-13T05:05:58.825Z,1017.27
2018-09-13T05:06:58.771Z,1017.22
2018-09-13T05:07:58.756Z,1017.23
2018-09-13T05:08:58.773Z,1017.27
2018-09-13T05:09:58.731Z,1017.26
2018-09-13T05:10:58.759Z,1017.30
2018-09-13T05:11:58.740Z,1017.29
2018-09-13T05:12:58.783Z,1017.23
2018-09-13T05:13:58.685Z,1017.28
2018-09-13T05:14:58.689Z,1017.31
2018-09-13T05:15:58.707Z,1017.28
2018-09-13T05:16:58.656Z,1017.33
2018-09-13T05:17:58.645Z,1017.28
2018-09-13T05:18:58.638Z,1017.29
2018-09-13T05:19:58.652Z,1017.29
2018-09-13T05:20:58.621Z,1017.32
2018-09-13T05:21:58.597Z,1017.32
2018-09-13T05:22:58.630Z,1017.34
2018-09-13T05:23:58.582Z,1017.36
2018-09-13T05:24:58.567Z,1017.33
2018-09-13T05:25:58.566Z,1017.33
2018-09-13T05:26:58.552Z,1017.36
2018-09-13T05:27:58.617Z,1017.32
2018-09-13T05:28:58.521Z,1017.30
2018-09-13T05:29:58.516Z,1017.31
2018-09-13T05:30:58.507Z,1017.32
2018-09-13T05:31:58.547Z,1017.28
2018-09-13T05:32:58.509Z,1017.31
2018-09-13T05:33:58.500Z,1017.32
2018-09-13T05:34:58.453Z,1017.34
2018-09-13T05:35:58.450Z,1017.33
2018-09-13T05:36:58.433Z,1017.30
2018-09-13T05:37:58.418Z,1017.29
2018-09-13T05:38:58.560Z,1017.34
2018-09-13T05:39:58.438Z,1017.34
2018-09-13T05:40:58.388Z,1017.36
2018-09-13T05:41:58.373Z,1017.34
2018-09-13T05:42:58.373Z,1017.40
2018-09-13T05:43:58.360Z,1017.38
2018-09-13T05:44:58.366Z,1017.39
2018-09-13T05:45:58.373Z,1017.41
2018-09-13T05:46:58.326Z,1017.36
2018-09-13T05:47:58.355Z,1017.33
2018-09-13T05:48:58.374Z,1017.33
2018-09-13T05:49:58.324Z,1017.32
2018-09-13T05:50:58.280Z,1017.34
2018-09-13T05:51:58.261Z,1017.32
2018-09-13T05:52:58.252Z,1017.35
2018-09-13T05:53:58.263Z,1017.30
2018-09-13T05:54:58.260Z,1017.38
2018-09-13T05:55:58.217Z,1017.31
2018-09-13T05:56:58.231Z,1017.32
2018-09-13T05:57:58.196Z,1017.34
2018-09-13T05:58:58.186Z,1017.35
2018-09-13T05:59:58.205Z,1017.37
2018-09-13T06:00:58.166Z,1017.36
2018-09-13T06:01:58.155Z,1017.40
2018-09-13T06:02:58.144Z,1017.42
2018-09-13T06:03:58.187Z,1017.39
2018-09-13T06:04:58.204Z,1017.43
2018-09-13T06:05:58.108Z,1017.38
2018-09-13T06:06:58.100Z,1017.45
2018-09-13T06:07:58.124Z,1017.50
2018-09-13T06:08:58.115Z,1017.40
2018-09-13T06:09:58.064Z,1017.48
2018-09-13T06:10:58.080Z,1017.40
2018-09-13T06:11:58.043Z,1017.37
2018-09-13T06:12:58.031Z,1017.41
2018-09-13T06:13:58.019Z,1017.34
2018-09-13T06:14:58.007Z,1017.40
2018-09-13T06:15:58.030Z,1017.37
2018-09-13T06:16:57.983Z,1017.34
2018-09-13T06:17:57.971Z,1017.42
2018-09-13T06:18:57.959Z,1017.34
2018-09-13T06:19:57.944Z,1017.32
2018-09-13T06:20:57.991Z,1017.31
2018-09-13T06:21:57.930Z,1017.32
2018-09-13T06:22:57.915Z,1017.34
2018-09-13T06:23:57.905Z,1017.34
2018-09-13T06:24:57.917Z,1017.32
2018-09-13T06:25:57.884Z,1017.30
2018-09-13T06:26:57.868Z,1017.30
2018-09-13T06:27:57.859Z,1017.33
2018-09-13T06:28:57.908Z,1017.30
2018-09-13T06:29:57.836Z,1017.35
2018-09-13T06:30:57.824Z,1017.36
2018-09-13T06:31:57.851Z,1017.34
2018-09-13T06:32:57.799Z,1017.33
2018-09-13T06:33:57.791Z,1017.44
2018-09-13T06:34:57.780Z,1017.39
2018-09-13T06:35:57.775Z,1017.36
2018-09-13T06:36:57.785Z,1017.38
2018-09-13T06:37:57.755Z,1017.36
2018-09-13T06:38:57.777Z,1017.35
2018-09-13T06:39:57.719Z,1017.41
2018-09-13T06:40:57.714Z,1017.40
2018-09-13T06:41:57.696Z,1017.43
2018-09-13T06:42:57.693Z,1017.45
2018-09-13T06:43:57.749Z,1017.43
2018-09-13T06:44:57.755Z,1017.46
2018-09-13T06:45:57.654Z,1017.40
2018-09-13T06:46:57.646Z,1017.39
2018-09-13T06:47:57.669Z,1017.43
2018-09-13T06:48:57.619Z,1017.41
2018-09-13T06:49:57.639Z,1017.44
2018-09-13T06:50:57.607Z,1017.41
2018-09-13T06:51:57.589Z,1017.41
2018-09-13T06:52:57.575Z,1017.46
2018-09-13T06:53:57.565Z,1017.45
2018-09-13T06:54:57.585Z,1017.43
2018-09-13T06:55:57.544Z,1017.46
2018-09-13T06:56:57.549Z,1017.50
2018-09-13T06:57:57.524Z,1017.43
2018-09-13T06:58:57.507Z,1017.42
2018-09-13T06:59:57.541Z,1017.41
2018-09-13T07:00:57.493Z,1017.42
2018-09-13T07:01:57.488Z,1017.46
2018-09-13T07:02:57.476Z,1017.50
2018-09-13T07:03:57.455Z,1017.53
2018-09-13T07:04:57.477Z,1017.43
2018-09-13T07:05:57.430Z,1017.43
2018-09-13T07:06:57.421Z,1017.45
2018-09-13T07:07:57.412Z,1017.41
2018-09-13T07:08:57.429Z,1017.36
2018-09-13T07:09:57.421Z,1017.37
2018-09-13T07:10:57.375Z,1017.39
2018-09-13T07:11:57.366Z,1017.42
2018-09-13T07:12:57.356Z,1017.44
2018-09-13T07:13:57.349Z,1017.45
2018-09-13T07:14:57.360Z,1017.48
2018-09-13T07:15:57.361Z,1017.49
2018-09-13T07:16:57.313Z,1017.47
2018-09-13T07:17:57.327Z,1017.49
2018-09-13T07:18:57.325Z,1017.43
2018-09-13T07:19:57.313Z,1017.40
2018-09-13T07:20:57.265Z,1017.39
2018-09-13T07:21:57.252Z,1017.43
2018-09-13T07:22:57.242Z,1017.44
2018-09-13T07:23:57.265Z,1017.40
2018-09-13T07:24:57.237Z,1017.45
2018-09-13T07:25:57.208Z,1017.41
2018-09-13T07:26:57.194Z,1017.46
2018-09-13T07:27:57.214Z,1017.47
2018-09-13T07:28:57.175Z,1017.48
2018-09-13T07:29:57.197Z,1017.47
2018-09-13T07:30:57.220Z,1017.52
2018-09-13T07:31:57.148Z,1017.52
2018-09-13T07:32:57.127Z,1017.53
2018-09-13T07:33:57.120Z,1017.55
2018-09-13T07:34:57.136Z,1017.49
2018-09-13T07:35:57.094Z,1017.50
2018-09-13T07:36:57.087Z,1017.57
2018-09-13T07:37:57.074Z,1017.58
2018-09-13T07:38:57.064Z,1017.56
2018-09-13T07:39:57.099Z,1017.60
2018-09-13T07:40:57.106Z,1017.63
2018-09-13T07:41:57.031Z,1017.63
2018-09-13T07:42:57.124Z,1017.63
2018-09-13T07:43:57.008Z,1017.58
2018-09-13T07:44:57.013Z,1017.61
2018-09-13T07:45:56.985Z,1017.59
2018-09-13T07:46:57.003Z,1017.65
2018-09-13T07:47:56.966Z,1017.70
2018-09-13T07:48:56.991Z,1017.69
2018-09-13T07:49:57.033Z,1017.66
2018-09-13T07:50:56.924Z,1017.66
2018-09-13T07:51:56.942Z,1017.69
2018-09-13T07:52:56.908Z,1017.70
2018-09-13T07:53:56.922Z,1017.66
2018-09-13T07:54:56.907Z,1017.69
2018-09-13T07:55:56.866Z,1017.66
2018-09-13T07:56:56.858Z,1017.67
2018-09-13T07:57:56.848Z,1017.67
2018-09-13T07:58:56.845Z,1017.65
2018-09-13T07:59:56.855Z,1017.64
2018-09-13T08:00:56.844Z,1017.68
2018-09-13T08:01:56.832Z,1017.70
2018-09-13T08:02:56.788Z,1017.69
2018-09-13T08:03:56.815Z,1017.72
2018-09-13T08:04:56.792Z,1017.72
2018-09-13T08:05:56.758Z,1017.68
2018-09-13T08:06:56.777Z,1017.71
2018-09-13T08:07:56.765Z,1017.73
2018-09-13T08:08:56.722Z,1017.68
2018-09-13T08:09:56.710Z,1017.69
2018-09-13T08:10:56.699Z,1017.67
2018-09-13T08:11:56.823Z,1017.64
2018-09-13T08:12:56.674Z,1017.68
2018-09-13T08:13:56.665Z,1017.65
2018-09-13T08:14:56.655Z,1017.67
2018-09-13T08:15:56.707Z,1017.69
2018-09-13T08:16:56.657Z,1017.70
2018-09-13T08:17:56.622Z,1017.72
2018-09-13T08:18:56.612Z,1017.65
2018-09-13T08:19:56.596Z,1017.69
2018-09-13T08:20:56.581Z,1017.68
2018-09-13T08:21:56.697Z,1017.72
2018-09-13T08:22:56.564Z,1017.69
2018-09-13T08:23:56.635Z,1017.70
2018-09-13T08:24:56.540Z,1017.76
2018-09-13T08:25:56.523Z,1017.77
2018-09-13T08:26:56.580Z,1017.74
2018-09-13T08:27:56.507Z,1017.78
2018-09-13T08:28:56.494Z,1017.81
2018-09-13T08:29:56.477Z,1017.79
2018-09-13T08:30:56.468Z,1017.83
2018-09-13T08:31:56.491Z,1017.84
2018-09-13T08:32:56.488Z,1017.81
2018-09-13T08:33:56.438Z,1017.88
2018-09-13T08:34:56.612Z,1017.89
2018-09-13T08:35:56.410Z,1017.90
2018-09-13T08:36:56.456Z,1017.88
2018-09-13T08:37:56.397Z,1017.92
2018-09-13T08:38:56.383Z,1017.92
2018-09-13T08:39:56.472Z,1017.96
2018-09-13T08:40:56.397Z,1017.93
2018-09-13T08:41:56.344Z,1017.92
2018-09-13T08:42:56.343Z,1017.94
2018-09-13T08:43:56.328Z,1017.95
2018-09-13T08:44:56.342Z,1017.94
2018-09-13T08:45:56.300Z,1017.94
2018-09-13T08:46:56.292Z,1017.92
2018-09-13T08:47:56.283Z,1017.97
2018-09-13T08:48:56.272Z,1017.95
2018-09-13T08:49:56.284Z,1017.96
2018-09-13T08:50:56.249Z,1017.97
2018-09-13T08:51:56.292Z,1017.92
2018-09-13T08:52:56.229Z,1017.95
2018-09-13T08:53:56.216Z,1017.99
2018-09-13T08:54:56.232Z,1017.95
2018-09-13T08:55:56.192Z,1017.95
2018-09-13T08:56:56.181Z,1017.97
2018-09-13T08:57:56.192Z,1018.00
2018-09-13T08:58:56.159Z,1017.97
2018-09-13T08:59:56.148Z,1018.01
2018-09-13T09:00:56.134Z,1018.02
2018-09-13T09:01:56.152Z,1017.97
2018-09-13T09:02:56.142Z,1017.93
2018-09-13T09:03:56.157Z,1017.93
2018-09-13T09:04:56.093Z,1017.94
2018-09-13T09:05:56.107Z,1017.96
2018-09-13T09:06:56.071Z,1017.95
2018-09-13T09:07:56.088Z,1017.99
2018-09-13T09:08:56.047Z,1017.95
2018-09-13T09:09:56.038Z,1017.96
2018-09-13T09:10:56.020Z,1017.95
2018-09-13T09:11:56.018Z,1017.93
2018-09-13T09:12:56.040Z,1017.97
2018-09-13T09:13:55.988Z,1017.91
2018-09-13T09:14:55.982Z,1017.98
2018-09-13T09:15:55.969Z,1017.96
2018-09-13T09:16:55.989Z,1017.96
2018-09-13T09:17:55.947Z,1017.93
2018-09-13T09:18:55.938Z,1017.97
2018-09-13T09:19:55.936Z,1017.97
2018-09-13T09:20:55.921Z,1017.94
2018-09-13T09:21:55.921Z,1018.03
2018-09-13T09:22:55.899Z,1018.01
2018-09-13T09:23:55.881Z,1017.99
2018-09-13T09:24:55.898Z,1018.00
2018-09-13T09:25:55.891Z,1018.01
2018-09-13T09:26:55.843Z,1018.01
2018-09-13T09:27:55.834Z,1017.99
2018-09-13T09:28:55.866Z,1017.97
2018-09-13T09:29:55.852Z,1018.10
2018-09-13T09:30:55.826Z,1017.99
2018-09-13T09:31:55.787Z,1017.98
2018-09-13T09:32:55.780Z,1018.03
2018-09-13T09:33:55.761Z,1018.08
2018-09-13T09:34:55.760Z,1018.09
2018-09-13T09:35:55.790Z,1018.09
2018-09-13T09:36:55.731Z,1018.07
2018-09-13T09:37:55.746Z,1018.10
2018-09-13T09:38:55.736Z,1018.10
2018-09-13T09:39:55.711Z,1018.06
2018-09-13T09:40:55.749Z,1018.07
2018-09-13T09:41:55.673Z,1018.10
2018-09-13T09:42:55.662Z,1018.06
2018-09-13T09:43:55.730Z,1018.10
2018-09-13T09:44:55.658Z,1018.06
2018-09-13T09:45:55.628Z,1018.07
2018-09-13T09:46:55.619Z,1018.06
2018-09-13T09:47:55.639Z,1018.05
2018-09-13T09:48:55.593Z,1018.07
2018-09-13T09:49:55.617Z,1018.04
2018-09-13T09:50:55.569Z,1018.06
2018-09-13T09:51:55.575Z,1018.07
2018-09-13T09:52:55.582Z,1018.11
2018-09-13T09:53:55.538Z,1018.06
2018-09-13T09:54:55.533Z,1018.10
2018-09-13T09:55:55.556Z,1018.07
2018-09-13T09:56:55.511Z,1018.05
2018-09-13T09:57:55.555Z,1018.06
2018-09-13T09:58:55.492Z,1018.06
2018-09-13T09:59:55.515Z,1018.02
2018-09-13T10:00:55.491Z,1018.01
2018-09-13T10:01:55.448Z,1017.98
2018-09-13T10:02:55.455Z,1018.01
2018-09-13T10:03:55.434Z,1018.04
2018-09-13T10:04:55.445Z,1018.08
2018-09-13T10:05:55.446Z,1018.03
2018-09-13T10:06:55.395Z,1018.01
2018-09-13T10:07:55.384Z,1018.08
2018-09-13T10:08:55.417Z,1018.03
2018-09-13T10:09:55.361Z,1018.10
2018-09-13T10:10:55.380Z,1018.10
2018-09-13T10:11:55.379Z,1018.13
2018-09-13T10:12:55.326Z,1018.14
2018-09-13T10:13:55.345Z,1018.04
2018-09-13T10:14:55.304Z,1018.09
2018-09-13T10:15:55.328Z,1018.05
2018-09-13T10:16:55.278Z,1018.05
2018-09-13T10:17:55.275Z,1018.07
2018-09-13T10:18:55.304Z,1018.01
2018-09-13T10:19:55.257Z,1018.02
2018-09-13T10:20:55.245Z,1017.94
2018-09-13T10:21:55.259Z,1017.92
2018-09-13T10:22:55.297Z,1017.88
2018-09-13T10:23:55.317Z,1017.93
2018-09-13T10:24:55.214Z,1017.91
2018-09-13T10:25:55.184Z,1017.93
2018-09-13T10:26:55.211Z,1017.86
2018-09-13T10:27:55.190Z,1017.87
2018-09-13T10:28:55.152Z,1017.85
2018-09-13T10:29:55.137Z,1017.87
2018-09-13T10:30:55.166Z,1017.86
2018-09-13T10:31:55.131Z,1017.86
2018-09-13T10:32:55.104Z,1017.88
2018-09-13T10:33:55.132Z,1017.92
2018-09-13T10:34:55.080Z,1017.91
2018-09-13T10:35:55.073Z,1017.91
2018-09-13T10:36:55.066Z,1017.90
2018-09-13T10:37:55.048Z,1017.84
2018-09-13T10:38:55.058Z,1017.88
2018-09-13T10:39:55.109Z,1017.83
2018-09-13T10:40:55.026Z,1017.78
2018-09-13T10:41:55.012Z,1017.77
2018-09-13T10:42:54.994Z,1017.80
2018-09-13T10:44:02.617Z,1017.83
2018-09-13T10:44:54.970Z,1017.86
2018-09-13T10:45:54.960Z,1017.82
2018-09-13T10:46:54.952Z,1017.82
2018-09-13T10:47:56.928Z,1017.84
2018-09-13T10:48:54.939Z,1017.86
2018-09-13T10:49:54.944Z,1017.79
2018-09-13T10:50:54.916Z,1017.81
2018-09-13T10:51:54.892Z,1017.83
2018-09-13T10:52:54.916Z,1017.84
2018-09-13T10:53:54.873Z,1017.84
2018-09-13T10:54:54.890Z,1017.81
2018-09-13T10:55:55.017Z,1017.86
2018-09-13T10:56:54.843Z,1017.82
2018-09-13T10:57:54.827Z,1017.86
2018-09-13T10:58:54.816Z,1017.76
2018-09-13T10:59:54.840Z,1017.78
2018-09-13T11:00:54.796Z,1017.77
2018-09-13T11:01:54.813Z,1017.73
2018-09-13T11:02:54.777Z,1017.71
2018-09-13T11:03:54.808Z,1017.75
2018-09-13T11:04:54.785Z,1017.73
2018-09-13T11:05:54.734Z,1017.71
2018-09-13T11:06:54.738Z,1017.69
2018-09-13T11:07:54.716Z,1017.70
2018-09-13T11:08:54.703Z,1017.70
2018-09-13T11:09:54.727Z,1017.72
2018-09-13T11:10:54.856Z,1017.77
2018-09-13T11:11:54.752Z,1017.74
2018-09-13T11:12:54.663Z,1017.76
2018-09-13T11:13:54.646Z,1017.72
2018-09-13T11:14:54.674Z,1017.77
2018-09-13T11:15:54.621Z,1017.68
2018-09-13T11:16:54.615Z,1017.75
2018-09-13T11:17:54.599Z,1017.70
2018-09-13T11:18:54.586Z,1017.75
2018-09-13T11:19:54.629Z,1017.72
2018-09-13T11:20:54.578Z,1017.75
2018-09-13T11:21:54.588Z,1017.76
2018-09-13T11:22:54.546Z,1017.72
2018-09-13T11:23:54.541Z,1017.72
2018-09-13T11:24:54.530Z,1017.75
2018-09-13T11:25:54.514Z,1017.74
2018-09-13T11:26:54.525Z,1017.73
2018-09-13T11:27:54.483Z,1017.71
2018-09-13T11:28:54.474Z,1017.73
2018-09-13T11:29:54.462Z,1017.73
2018-09-13T11:30:54.491Z,1017.67
2018-09-13T11:31:54.470Z,1017.64
2018-09-13T11:32:54.433Z,1017.61
2018-09-13T11:33:54.421Z,1017.62
2018-09-13T11:34:54.415Z,1017.65
2018-09-13T11:35:54.452Z,1017.61
2018-09-13T11:36:54.419Z,1017.62
2018-09-13T11:37:54.409Z,1017.66
2018-09-13T11:38:54.359Z,1017.63
2018-09-13T11:39:54.475Z,1017.57
2018-09-13T11:40:54.680Z,1017.61
2018-09-13T11:41:54.332Z,1017.56
2018-09-13T11:42:54.349Z,1017.60
2018-09-13T11:43:54.351Z,1017.59
2018-09-13T11:44:54.298Z,1017.60
2018-09-13T11:45:54.289Z,1017.60
2018-09-13T11:46:54.275Z,1017.56
2018-09-13T11:47:54.268Z,1017.52
2018-09-13T11:48:54.286Z,1017.58
2018-09-13T11:49:54.250Z,1017.55
2018-09-13T11:50:54.227Z,1017.54
2018-09-13T11:51:54.218Z,1017.46
2018-09-13T11:52:54.243Z,1017.51
2018-09-13T11:53:54.235Z,1017.50
2018-09-13T11:54:54.298Z,1017.49
2018-09-13T11:55:54.184Z,1017.49
2018-09-13T11:56:54.167Z,1017.47
2018-09-13T11:57:54.185Z,1017.48
2018-09-13T11:58:54.145Z,1017.44
2018-09-13T11:59:54.129Z,1017.47
2018-09-13T12:00:54.124Z,1017.54
2018-09-13T12:01:54.147Z,1017.50
2018-09-13T12:02:54.096Z,1017.48
2018-09-13T12:03:54.088Z,1017.48
2018-09-13T12:04:54.070Z,1017.48